sensor_id;sensor_type;location;lat;lon;timestamp;P1;durP1;ratioP1;P2;durP2;ratioP2
36441;SDS011;22470;50.824;16.284;2022-07-29T00:01:06;11.18;;;5.25;;
36441;SDS011;22470;50.824;16.284;2022-07-29T00:03:45;11.43;;;5.80;;
36441;SDS011;22470;50.824;16.284;2022-07-29T00:06:13;11.07;;;4.88;;
36441;SDS011;22470;50.824;16.284;2022-07-29T00:08:40;11.45;;;4.45;;
36441;SDS011;22470;50.824;16.284;2022-07-29T00:11:08;8.32;;;3.70;;
36441;SDS011;22470;50.824;16.284;2022-07-29T00:13:35;15.20;;;4.25;;
36441;SDS011;22470;50.824;16.284;2022-07-29T00:16:03;7.63;;;3.30;;
36441;SDS011;22470;50.824;16.284;2022-07-29T00:18:31;11.32;;;3.55;;
36441;SDS011;22470;50.824;16.284;2022-07-29T00:20:58;10.30;;;3.92;;
36441;SDS011;22470;50.824;16.284;2022-07-29T00:23:26;8.80;;;3.38;;
36441;SDS011;22470;50.824;16.284;2022-07-29T00:25:53;9.18;;;3.80;;
36441;SDS011;22470;50.824;16.284;2022-07-29T00:28:21;8.55;;;3.20;;
36441;SDS011;22470;50.824;16.284;2022-07-29T00:30:48;7.82;;;3.40;;
36441;SDS011;22470;50.824;16.284;2022-07-29T00:33:15;10.95;;;3.90;;
36441;SDS011;22470;50.824;16.284;2022-07-29T00:35:42;8.65;;;3.90;;
36441;SDS011;22470;50.824;16.284;2022-07-29T00:38:10;7.85;;;4.30;;
36441;SDS011;22470;50.824;16.284;2022-07-29T00:40:39;11.55;;;4.40;;
36441;SDS011;22470;50.824;16.284;2022-07-29T00:43:10;10.20;;;4.55;;
36441;SDS011;22470;50.824;16.284;2022-07-29T00:45:37;10.70;;;5.40;;
36441;SDS011;22470;50.824;16.284;2022-07-29T00:48:05;10.43;;;4.70;;
36441;SDS011;22470;50.824;16.284;2022-07-29T00:50:32;11.65;;;4.70;;
36441;SDS011;22470;50.824;16.284;2022-07-29T00:53:00;12.43;;;4.70;;
36441;SDS011;22470;50.824;16.284;2022-07-29T00:55:29;11.55;;;6.25;;
36441;SDS011;22470;50.824;16.284;2022-07-29T00:57:56;10.85;;;4.72;;
36441;SDS011;22470;50.824;16.284;2022-07-29T01:00:26;9.60;;;4.68;;
36441;SDS011;22470;50.824;16.284;2022-07-29T01:02:55;8.35;;;3.70;;
36441;SDS011;22470;50.824;16.284;2022-07-29T01:05:23;8.82;;;3.80;;
36441;SDS011;22470;50.824;16.284;2022-07-29T01:08:13;7.28;;;3.42;;
36441;SDS011;22470;50.824;16.284;2022-07-29T01:10:41;11.10;;;4.13;;
36441;SDS011;22470;50.824;16.284;2022-07-29T01:13:10;10.05;;;3.70;;
36441;SDS011;22470;50.824;16.284;2022-07-29T01:15:41;7.10;;;3.60;;
36441;SDS011;22470;50.824;16.284;2022-07-29T01:18:28;7.55;;;3.30;;
36441;SDS011;22470;50.824;16.284;2022-07-29T01:26:33;9.30;;;4.07;;
36441;SDS011;22470;50.824;16.284;2022-07-29T01:34:30;8.00;;;3.97;;
36441;SDS011;22470;50.824;16.284;2022-07-29T01:37:24;12.30;;;4.00;;
36441;SDS011;22470;50.824;16.284;2022-07-29T01:39:56;8.52;;;4.05;;
36441;SDS011;22470;50.824;16.284;2022-07-29T01:51:02;7.65;;;2.83;;
36441;SDS011;22470;50.824;16.284;2022-07-29T01:59:09;4.47;;;2.45;;
36441;SDS011;22470;50.824;16.284;2022-07-29T02:01:37;5.43;;;3.05;;
36441;SDS011;22470;50.824;16.284;2022-07-29T02:04:09;4.72;;;2.40;;
36441;SDS011;22470;50.824;16.284;2022-07-29T02:06:57;7.35;;;3.30;;
36441;SDS011;22470;50.824;16.284;2022-07-29T02:09:28;7.50;;;3.00;;
36441;SDS011;22470;50.824;16.284;2022-07-29T02:11:57;7.18;;;3.00;;
36441;SDS011;22470;50.824;16.284;2022-07-29T02:14:26;6.78;;;2.95;;
36441;SDS011;22470;50.824;16.284;2022-07-29T02:16:59;8.45;;;3.33;;
36441;SDS011;22470;50.824;16.284;2022-07-29T02:19:28;8.25;;;3.15;;
36441;SDS011;22470;50.824;16.284;2022-07-29T02:21:58;8.85;;;3.22;;
36441;SDS011;22470;50.824;16.284;2022-07-29T02:24:26;6.00;;;3.00;;
36441;SDS011;22470;50.824;16.284;2022-07-29T02:26:56;8.05;;;3.63;;
36441;SDS011;22470;50.824;16.284;2022-07-29T02:29:26;7.93;;;3.13;;
36441;SDS011;22470;50.824;16.284;2022-07-29T02:31:55;9.20;;;3.10;;
36441;SDS011;22470;50.824;16.284;2022-07-29T02:34:24;10.38;;;3.50;;
36441;SDS011;22470;50.824;16.284;2022-07-29T02:36:52;7.60;;;3.80;;
36441;SDS011;22470;50.824;16.284;2022-07-29T02:39:22;6.28;;;2.88;;
36441;SDS011;22470;50.824;16.284;2022-07-29T02:42:03;10.25;;;4.00;;
36441;SDS011;22470;50.824;16.284;2022-07-29T02:44:34;8.32;;;3.95;;
36441;SDS011;22470;50.824;16.284;2022-07-29T02:47:04;9.48;;;3.60;;
36441;SDS011;22470;50.824;16.284;2022-07-29T02:52:19;9.90;;;4.07;;
36441;SDS011;22470;50.824;16.284;2022-07-29T02:54:54;11.68;;;4.00;;
36441;SDS011;22470;50.824;16.284;2022-07-29T03:00:22;10.75;;;4.10;;
36441;SDS011;22470;50.824;16.284;2022-07-29T03:02:53;9.18;;;3.88;;
36441;SDS011;22470;50.824;16.284;2022-07-29T03:05:24;9.48;;;3.80;;
36441;SDS011;22470;50.824;16.284;2022-07-29T03:07:55;10.15;;;3.97;;
36441;SDS011;22470;50.824;16.284;2022-07-29T03:10:27;8.48;;;3.63;;
36441;SDS011;22470;50.824;16.284;2022-07-29T03:12:55;11.60;;;4.13;;
36441;SDS011;22470;50.824;16.284;2022-07-29T03:15:24;6.30;;;3.72;;
36441;SDS011;22470;50.824;16.284;2022-07-29T03:17:52;9.10;;;3.90;;
36441;SDS011;22470;50.824;16.284;2022-07-29T03:20:20;10.02;;;3.72;;
36441;SDS011;22470;50.824;16.284;2022-07-29T03:22:47;7.15;;;3.58;;
36441;SDS011;22470;50.824;16.284;2022-07-29T03:25:16;11.18;;;3.75;;
36441;SDS011;22470;50.824;16.284;2022-07-29T03:27:44;10.35;;;3.92;;
36441;SDS011;22470;50.824;16.284;2022-07-29T03:30:14;9.93;;;4.22;;
36441;SDS011;22470;50.824;16.284;2022-07-29T03:32:48;10.00;;;4.00;;
36441;SDS011;22470;50.824;16.284;2022-07-29T03:35:18;13.15;;;3.97;;
36441;SDS011;22470;50.824;16.284;2022-07-29T03:37:46;13.05;;;5.45;;
36441;SDS011;22470;50.824;16.284;2022-07-29T03:40:14;10.50;;;4.68;;
36441;SDS011;22470;50.824;16.284;2022-07-29T03:42:48;11.45;;;4.70;;
36441;SDS011;22470;50.824;16.284;2022-07-29T03:45:18;7.70;;;3.97;;
36441;SDS011;22470;50.824;16.284;2022-07-29T03:47:48;9.85;;;4.28;;
36441;SDS011;22470;50.824;16.284;2022-07-29T03:50:25;13.35;;;4.50;;
36441;SDS011;22470;50.824;16.284;2022-07-29T03:52:53;11.43;;;4.40;;
36441;SDS011;22470;50.824;16.284;2022-07-29T03:55:21;11.85;;;4.82;;
36441;SDS011;22470;50.824;16.284;2022-07-29T03:57:48;11.82;;;4.10;;
36441;SDS011;22470;50.824;16.284;2022-07-29T04:00:16;9.27;;;4.05;;
36441;SDS011;22470;50.824;16.284;2022-07-29T04:02:44;11.30;;;4.28;;
36441;SDS011;22470;50.824;16.284;2022-07-29T04:05:12;9.15;;;3.72;;
36441;SDS011;22470;50.824;16.284;2022-07-29T04:07:42;8.52;;;4.15;;
36441;SDS011;22470;50.824;16.284;2022-07-29T04:10:14;10.40;;;4.30;;
36441;SDS011;22470;50.824;16.284;2022-07-29T04:12:41;12.23;;;4.90;;
36441;SDS011;22470;50.824;16.284;2022-07-29T04:15:09;11.88;;;4.28;;
36441;SDS011;22470;50.824;16.284;2022-07-29T04:17:37;12.30;;;4.78;;
36441;SDS011;22470;50.824;16.284;2022-07-29T04:20:05;9.80;;;4.60;;
36441;SDS011;22470;50.824;16.284;2022-07-29T04:22:32;11.02;;;4.32;;
36441;SDS011;22470;50.824;16.284;2022-07-29T04:25:00;13.05;;;4.78;;
36441;SDS011;22470;50.824;16.284;2022-07-29T04:27:29;12.00;;;4.75;;
36441;SDS011;22470;50.824;16.284;2022-07-29T04:29:57;11.95;;;4.35;;
36441;SDS011;22470;50.824;16.284;2022-07-29T04:32:24;15.88;;;5.10;;
36441;SDS011;22470;50.824;16.284;2022-07-29T04:34:52;9.77;;;4.13;;
36441;SDS011;22470;50.824;16.284;2022-07-29T04:37:19;13.23;;;4.95;;
36441;SDS011;22470;50.824;16.284;2022-07-29T04:39:46;12.40;;;5.00;;
36441;SDS011;22470;50.824;16.284;2022-07-29T04:42:14;11.98;;;4.63;;
36441;SDS011;22470;50.824;16.284;2022-07-29T04:44:42;12.55;;;5.25;;
36441;SDS011;22470;50.824;16.284;2022-07-29T04:47:11;11.45;;;4.85;;
36441;SDS011;22470;50.824;16.284;2022-07-29T04:49:38;12.20;;;4.82;;
36441;SDS011;22470;50.824;16.284;2022-07-29T04:52:05;11.25;;;5.10;;
36441;SDS011;22470;50.824;16.284;2022-07-29T04:54:33;12.35;;;5.35;;
36441;SDS011;22470;50.824;16.284;2022-07-29T04:57:00;13.07;;;5.57;;
36441;SDS011;22470;50.824;16.284;2022-07-29T04:59:27;10.93;;;4.90;;
36441;SDS011;22470;50.824;16.284;2022-07-29T05:01:55;11.73;;;5.43;;
36441;SDS011;22470;50.824;16.284;2022-07-29T05:04:22;12.38;;;5.43;;
36441;SDS011;22470;50.824;16.284;2022-07-29T05:06:49;10.00;;;4.85;;
36441;SDS011;22470;50.824;16.284;2022-07-29T05:09:16;12.48;;;5.45;;
36441;SDS011;22470;50.824;16.284;2022-07-29T05:11:43;14.88;;;5.40;;
36441;SDS011;22470;50.824;16.284;2022-07-29T05:14:11;12.98;;;5.78;;
36441;SDS011;22470;50.824;16.284;2022-07-29T05:16:38;15.38;;;5.93;;
36441;SDS011;22470;50.824;16.284;2022-07-29T05:19:05;13.23;;;5.40;;
36441;SDS011;22470;50.824;16.284;2022-07-29T05:21:39;12.02;;;5.70;;
36441;SDS011;22470;50.824;16.284;2022-07-29T05:24:07;18.77;;;7.10;;
36441;SDS011;22470;50.824;16.284;2022-07-29T05:26:34;13.82;;;5.85;;
36441;SDS011;22470;50.824;16.284;2022-07-29T05:29:01;15.13;;;5.78;;
36441;SDS011;22470;50.824;16.284;2022-07-29T05:31:28;18.65;;;6.75;;
36441;SDS011;22470;50.824;16.284;2022-07-29T05:33:56;15.95;;;5.68;;
36441;SDS011;22470;50.824;16.284;2022-07-29T05:36:23;20.58;;;6.25;;
36441;SDS011;22470;50.824;16.284;2022-07-29T05:38:50;18.38;;;6.28;;
36441;SDS011;22470;50.824;16.284;2022-07-29T05:41:18;13.70;;;5.55;;
36441;SDS011;22470;50.824;16.284;2022-07-29T05:43:45;14.57;;;5.10;;
36441;SDS011;22470;50.824;16.284;2022-07-29T05:46:13;21.27;;;5.57;;
36441;SDS011;22470;50.824;16.284;2022-07-29T05:48:40;18.45;;;6.75;;
36441;SDS011;22470;50.824;16.284;2022-07-29T05:51:07;15.05;;;6.55;;
36441;SDS011;22470;50.824;16.284;2022-07-29T05:53:34;16.38;;;6.65;;
36441;SDS011;22470;50.824;16.284;2022-07-29T05:56:04;17.08;;;5.88;;
36441;SDS011;22470;50.824;16.284;2022-07-29T05:58:32;16.20;;;6.03;;
36441;SDS011;22470;50.824;16.284;2022-07-29T06:00:59;18.88;;;5.45;;
36441;SDS011;22470;50.824;16.284;2022-07-29T06:03:27;15.20;;;5.60;;
36441;SDS011;22470;50.824;16.284;2022-07-29T06:05:54;17.00;;;6.07;;
36441;SDS011;22470;50.824;16.284;2022-07-29T06:08:22;15.32;;;5.85;;
36441;SDS011;22470;50.824;16.284;2022-07-29T06:10:49;23.33;;;7.47;;
36441;SDS011;22470;50.824;16.284;2022-07-29T06:13:16;12.82;;;5.38;;
36441;SDS011;22470;50.824;16.284;2022-07-29T06:15:43;14.32;;;5.50;;
36441;SDS011;22470;50.824;16.284;2022-07-29T06:18:11;17.00;;;5.95;;
36441;SDS011;22470;50.824;16.284;2022-07-29T06:20:39;13.73;;;5.50;;
36441;SDS011;22470;50.824;16.284;2022-07-29T06:23:06;14.13;;;5.80;;
36441;SDS011;22470;50.824;16.284;2022-07-29T06:25:34;13.15;;;5.50;;
36441;SDS011;22470;50.824;16.284;2022-07-29T06:28:01;12.63;;;4.93;;
36441;SDS011;22470;50.824;16.284;2022-07-29T06:30:29;11.25;;;4.85;;
36441;SDS011;22470;50.824;16.284;2022-07-29T06:32:56;8.00;;;4.20;;
36441;SDS011;22470;50.824;16.284;2022-07-29T06:35:23;13.00;;;5.15;;
36441;SDS011;22470;50.824;16.284;2022-07-29T06:38:07;26.98;;;7.90;;
36441;SDS011;22470;50.824;16.284;2022-07-29T06:40:55;25.25;;;9.43;;
36441;SDS011;22470;50.824;16.284;2022-07-29T06:43:22;20.33;;;6.65;;
36441;SDS011;22470;50.824;16.284;2022-07-29T06:45:51;16.75;;;6.03;;
36441;SDS011;22470;50.824;16.284;2022-07-29T06:48:19;21.27;;;7.07;;
36441;SDS011;22470;50.824;16.284;2022-07-29T06:50:46;14.95;;;5.93;;
36441;SDS011;22470;50.824;16.284;2022-07-29T06:53:13;25.70;;;8.25;;
36441;SDS011;22470;50.824;16.284;2022-07-29T06:55:41;24.85;;;7.85;;
36441;SDS011;22470;50.824;16.284;2022-07-29T06:58:08;24.98;;;7.97;;
36441;SDS011;22470;50.824;16.284;2022-07-29T07:00:35;24.55;;;8.15;;
36441;SDS011;22470;50.824;16.284;2022-07-29T07:03:03;27.05;;;7.18;;
36441;SDS011;22470;50.824;16.284;2022-07-29T07:05:30;17.50;;;6.78;;
36441;SDS011;22470;50.824;16.284;2022-07-29T07:07:57;17.58;;;6.65;;
36441;SDS011;22470;50.824;16.284;2022-07-29T07:10:24;16.00;;;5.78;;
36441;SDS011;22470;50.824;16.284;2022-07-29T07:12:51;16.38;;;6.85;;
36441;SDS011;22470;50.824;16.284;2022-07-29T07:15:19;18.65;;;6.15;;
36441;SDS011;22470;50.824;16.284;2022-07-29T07:17:46;17.02;;;5.68;;
36441;SDS011;22470;50.824;16.284;2022-07-29T07:20:14;15.95;;;5.90;;
36441;SDS011;22470;50.824;16.284;2022-07-29T07:22:42;14.23;;;4.60;;
36441;SDS011;22470;50.824;16.284;2022-07-29T07:25:10;12.63;;;5.18;;
36441;SDS011;22470;50.824;16.284;2022-07-29T07:27:38;17.30;;;6.28;;
36441;SDS011;22470;50.824;16.284;2022-07-29T07:30:05;12.98;;;4.57;;
36441;SDS011;22470;50.824;16.284;2022-07-29T07:32:34;14.82;;;4.90;;
36441;SDS011;22470;50.824;16.284;2022-07-29T07:35:02;13.07;;;5.18;;
36441;SDS011;22470;50.824;16.284;2022-07-29T07:37:31;10.20;;;4.75;;
36441;SDS011;22470;50.824;16.284;2022-07-29T07:39:59;11.38;;;3.95;;
36441;SDS011;22470;50.824;16.284;2022-07-29T07:42:26;9.10;;;4.55;;
36441;SDS011;22470;50.824;16.284;2022-07-29T07:44:53;15.27;;;4.90;;
36441;SDS011;22470;50.824;16.284;2022-07-29T07:47:39;10.35;;;4.57;;
36441;SDS011;22470;50.824;16.284;2022-07-29T07:50:07;10.25;;;5.28;;
36441;SDS011;22470;50.824;16.284;2022-07-29T07:52:47;12.90;;;4.85;;
36441;SDS011;22470;50.824;16.284;2022-07-29T07:55:15;11.73;;;4.57;;
36441;SDS011;22470;50.824;16.284;2022-07-29T07:57:43;12.23;;;4.68;;
36441;SDS011;22470;50.824;16.284;2022-07-29T08:00:14;9.48;;;4.35;;
36441;SDS011;22470;50.824;16.284;2022-07-29T08:02:43;14.82;;;4.18;;
36441;SDS011;22470;50.824;16.284;2022-07-29T08:05:11;14.88;;;5.10;;
36441;SDS011;22470;50.824;16.284;2022-07-29T08:07:39;11.32;;;4.60;;
36441;SDS011;22470;50.824;16.284;2022-07-29T08:10:06;11.52;;;5.25;;
36441;SDS011;22470;50.824;16.284;2022-07-29T08:12:33;16.88;;;5.47;;
36441;SDS011;22470;50.824;16.284;2022-07-29T08:15:01;10.57;;;4.82;;
36441;SDS011;22470;50.824;16.284;2022-07-29T08:17:28;9.90;;;4.15;;
36441;SDS011;22470;50.824;16.284;2022-07-29T08:20:00;12.63;;;4.50;;
36441;SDS011;22470;50.824;16.284;2022-07-29T08:22:28;8.88;;;4.28;;
36441;SDS011;22470;50.824;16.284;2022-07-29T08:24:56;11.80;;;4.70;;
36441;SDS011;22470;50.824;16.284;2022-07-29T08:27:23;9.80;;;4.32;;
36441;SDS011;22470;50.824;16.284;2022-07-29T08:30:10;14.07;;;5.15;;
36441;SDS011;22470;50.824;16.284;2022-07-29T08:32:38;20.33;;;5.82;;
36441;SDS011;22470;50.824;16.284;2022-07-29T08:35:22;13.07;;;4.78;;
36441;SDS011;22470;50.824;16.284;2022-07-29T08:37:51;10.98;;;4.15;;
36441;SDS011;22470;50.824;16.284;2022-07-29T08:40:21;17.80;;;5.75;;
36441;SDS011;22470;50.824;16.284;2022-07-29T08:42:59;16.83;;;5.00;;
36441;SDS011;22470;50.824;16.284;2022-07-29T08:45:36;11.93;;;5.03;;
36441;SDS011;22470;50.824;16.284;2022-07-29T08:48:18;10.05;;;4.32;;
36441;SDS011;22470;50.824;16.284;2022-07-29T08:50:47;11.70;;;4.38;;
36441;SDS011;22470;50.824;16.284;2022-07-29T08:53:19;10.70;;;3.72;;
36441;SDS011;22470;50.824;16.284;2022-07-29T08:55:48;12.38;;;4.75;;
36441;SDS011;22470;50.824;16.284;2022-07-29T08:58:16;9.90;;;4.82;;
36441;SDS011;22470;50.824;16.284;2022-07-29T09:03:18;10.73;;;4.57;;
36441;SDS011;22470;50.824;16.284;2022-07-29T09:05:46;10.00;;;4.07;;
36441;SDS011;22470;50.824;16.284;2022-07-29T09:08:15;8.73;;;4.20;;
36441;SDS011;22470;50.824;16.284;2022-07-29T09:10:43;12.73;;;4.28;;
36441;SDS011;22470;50.824;16.284;2022-07-29T09:13:11;9.27;;;4.20;;
36441;SDS011;22470;50.824;16.284;2022-07-29T09:15:38;10.32;;;3.88;;
36441;SDS011;22470;50.824;16.284;2022-07-29T09:18:05;7.13;;;3.78;;
36441;SDS011;22470;50.824;16.284;2022-07-29T09:20:32;9.52;;;3.53;;
36441;SDS011;22470;50.824;16.284;2022-07-29T09:23:06;10.35;;;4.13;;
36441;SDS011;22470;50.824;16.284;2022-07-29T09:25:38;10.25;;;3.60;;
36441;SDS011;22470;50.824;16.284;2022-07-29T09:28:06;12.55;;;4.63;;
36441;SDS011;22470;50.824;16.284;2022-07-29T09:30:50;13.15;;;4.55;;
36441;SDS011;22470;50.824;16.284;2022-07-29T09:33:18;9.98;;;3.95;;
36441;SDS011;22470;50.824;16.284;2022-07-29T09:35:58;12.90;;;4.75;;
36441;SDS011;22470;50.824;16.284;2022-07-29T09:38:29;17.05;;;8.40;;
36441;SDS011;22470;50.824;16.284;2022-07-29T09:40:57;10.70;;;3.85;;
36441;SDS011;22470;50.824;16.284;2022-07-29T09:43:32;11.45;;;4.47;;
36441;SDS011;22470;50.824;16.284;2022-07-29T09:46:09;13.93;;;4.40;;
36441;SDS011;22470;50.824;16.284;2022-07-29T09:48:38;16.38;;;4.78;;
36441;SDS011;22470;50.824;16.284;2022-07-29T09:51:05;13.10;;;4.90;;
36441;SDS011;22470;50.824;16.284;2022-07-29T09:53:55;6.88;;;4.00;;
36441;SDS011;22470;50.824;16.284;2022-07-29T09:56:37;15.68;;;5.05;;
36441;SDS011;22470;50.824;16.284;2022-07-29T09:59:06;17.10;;;5.07;;
36441;SDS011;22470;50.824;16.284;2022-07-29T10:01:34;12.93;;;4.55;;
36441;SDS011;22470;50.824;16.284;2022-07-29T10:04:02;12.20;;;4.82;;
36441;SDS011;22470;50.824;16.284;2022-07-29T10:06:30;9.82;;;4.93;;
36441;SDS011;22470;50.824;16.284;2022-07-29T10:09:08;9.70;;;4.40;;
36441;SDS011;22470;50.824;16.284;2022-07-29T10:11:36;9.88;;;4.43;;
36441;SDS011;22470;50.824;16.284;2022-07-29T10:14:15;14.77;;;5.80;;
36441;SDS011;22470;50.824;16.284;2022-07-29T10:16:43;16.65;;;4.53;;
36441;SDS011;22470;50.824;16.284;2022-07-29T10:19:10;9.95;;;4.57;;
36441;SDS011;22470;50.824;16.284;2022-07-29T10:21:39;12.07;;;4.63;;
36441;SDS011;22470;50.824;16.284;2022-07-29T10:24:07;14.07;;;4.97;;
36441;SDS011;22470;50.824;16.284;2022-07-29T10:26:40;13.02;;;5.30;;
36441;SDS011;22470;50.824;16.284;2022-07-29T10:29:08;11.60;;;5.35;;
36441;SDS011;22470;50.824;16.284;2022-07-29T10:31:44;12.10;;;5.43;;
36441;SDS011;22470;50.824;16.284;2022-07-29T10:37:47;9.98;;;4.25;;
36441;SDS011;22470;50.824;16.284;2022-07-29T10:40:34;10.10;;;4.38;;
36441;SDS011;22470;50.824;16.284;2022-07-29T10:43:25;10.55;;;4.30;;
36441;SDS011;22470;50.824;16.284;2022-07-29T10:45:56;8.30;;;4.38;;
36441;SDS011;22470;50.824;16.284;2022-07-29T10:48:24;9.93;;;4.40;;
36441;SDS011;22470;50.824;16.284;2022-07-29T10:51:01;10.82;;;4.30;;
36441;SDS011;22470;50.824;16.284;2022-07-29T10:56:25;17.25;;;6.25;;
36441;SDS011;22470;50.824;16.284;2022-07-29T11:01:48;12.93;;;4.82;;
36441;SDS011;22470;50.824;16.284;2022-07-29T11:07:10;14.98;;;4.90;;
36441;SDS011;22470;50.824;16.284;2022-07-29T11:09:38;18.17;;;5.38;;
36441;SDS011;22470;50.824;16.284;2022-07-29T11:15:05;11.82;;;4.72;;
36441;SDS011;22470;50.824;16.284;2022-07-29T11:22:59;17.88;;;7.65;;
36441;SDS011;22470;50.824;16.284;2022-07-29T11:25:28;18.98;;;6.53;;
36441;SDS011;22470;50.824;16.284;2022-07-29T11:28:16;13.82;;;5.75;;
36441;SDS011;22470;50.824;16.284;2022-07-29T11:30:52;15.88;;;5.35;;
36441;SDS011;22470;50.824;16.284;2022-07-29T11:33:32;13.55;;;4.50;;
36441;SDS011;22470;50.824;16.284;2022-07-29T11:36:20;12.20;;;4.20;;
36441;SDS011;22470;50.824;16.284;2022-07-29T11:39:28;16.98;;;5.22;;
36441;SDS011;22470;50.824;16.284;2022-07-29T11:45:16;13.30;;;4.65;;
36441;SDS011;22470;50.824;16.284;2022-07-29T11:48:14;10.60;;;4.47;;
36441;SDS011;22470;50.824;16.284;2022-07-29T11:50:57;12.43;;;5.65;;
36441;SDS011;22470;50.824;16.284;2022-07-29T11:53:26;13.23;;;6.65;;
36441;SDS011;22470;50.824;16.284;2022-07-29T11:55:58;12.90;;;5.15;;
36441;SDS011;22470;50.824;16.284;2022-07-29T11:58:26;13.95;;;5.25;;
36441;SDS011;22470;50.824;16.284;2022-07-29T12:00:54;8.20;;;4.38;;
36441;SDS011;22470;50.824;16.284;2022-07-29T12:03:24;8.55;;;3.83;;
36441;SDS011;22470;50.824;16.284;2022-07-29T12:06:11;8.25;;;4.50;;
36441;SDS011;22470;50.824;16.284;2022-07-29T12:08:41;10.40;;;5.55;;
36441;SDS011;22470;50.824;16.284;2022-07-29T12:11:16;8.43;;;4.50;;
36441;SDS011;22470;50.824;16.284;2022-07-29T12:13:47;9.40;;;4.13;;
36441;SDS011;22470;50.824;16.284;2022-07-29T12:16:15;7.43;;;3.67;;
36441;SDS011;22470;50.824;16.284;2022-07-29T12:19:01;9.13;;;3.92;;
36441;SDS011;22470;50.824;16.284;2022-07-29T12:21:46;10.80;;;4.28;;
36441;SDS011;22470;50.824;16.284;2022-07-29T12:24:22;12.77;;;4.40;;
36441;SDS011;22470;50.824;16.284;2022-07-29T12:26:53;9.18;;;3.95;;
36441;SDS011;22470;50.824;16.284;2022-07-29T12:29:20;11.90;;;4.05;;
36441;SDS011;22470;50.824;16.284;2022-07-29T12:32:02;10.48;;;4.32;;
36441;SDS011;22470;50.824;16.284;2022-07-29T12:34:35;15.40;;;4.55;;
36441;SDS011;22470;50.824;16.284;2022-07-29T12:37:03;11.52;;;4.93;;
36441;SDS011;22470;50.824;16.284;2022-07-29T12:39:30;11.43;;;4.85;;
36441;SDS011;22470;50.824;16.284;2022-07-29T12:41:57;7.68;;;4.22;;
36441;SDS011;22470;50.824;16.284;2022-07-29T12:47:17;25.60;;;8.73;;
36441;SDS011;22470;50.824;16.284;2022-07-29T12:49:46;11.32;;;4.40;;
36441;SDS011;22470;50.824;16.284;2022-07-29T12:52:23;10.57;;;4.20;;
36441;SDS011;22470;50.824;16.284;2022-07-29T12:54:58;9.65;;;4.80;;
36441;SDS011;22470;50.824;16.284;2022-07-29T12:57:25;9.77;;;3.75;;
36441;SDS011;22470;50.824;16.284;2022-07-29T13:00:09;9.15;;;4.53;;
36441;SDS011;22470;50.824;16.284;2022-07-29T13:02:38;8.50;;;3.92;;
36441;SDS011;22470;50.824;16.284;2022-07-29T13:05:07;9.15;;;4.28;;
36441;SDS011;22470;50.824;16.284;2022-07-29T13:07:35;10.23;;;4.05;;
36441;SDS011;22470;50.824;16.284;2022-07-29T13:10:23;10.50;;;5.15;;
36441;SDS011;22470;50.824;16.284;2022-07-29T13:15:43;9.38;;;4.40;;
36441;SDS011;22470;50.824;16.284;2022-07-29T13:18:27;8.50;;;4.63;;
36441;SDS011;22470;50.824;16.284;2022-07-29T13:20:56;13.60;;;4.82;;
36441;SDS011;22470;50.824;16.284;2022-07-29T13:23:36;13.88;;;5.30;;
36441;SDS011;22470;50.824;16.284;2022-07-29T13:26:05;13.23;;;4.45;;
36441;SDS011;22470;50.824;16.284;2022-07-29T13:28:32;10.07;;;4.55;;
36441;SDS011;22470;50.824;16.284;2022-07-29T13:31:00;10.07;;;4.55;;
36441;SDS011;22470;50.824;16.284;2022-07-29T13:33:28;10.80;;;4.88;;
36441;SDS011;22470;50.824;16.284;2022-07-29T13:35:55;10.63;;;5.32;;
36441;SDS011;22470;50.824;16.284;2022-07-29T13:38:22;10.18;;;5.20;;
36441;SDS011;22470;50.824;16.284;2022-07-29T13:40:57;10.90;;;4.20;;
36441;SDS011;22470;50.824;16.284;2022-07-29T13:43:24;7.95;;;3.92;;
36441;SDS011;22470;50.824;16.284;2022-07-29T13:45:51;10.52;;;4.80;;
36441;SDS011;22470;50.824;16.284;2022-07-29T13:48:19;9.82;;;4.32;;
36441;SDS011;22470;50.824;16.284;2022-07-29T13:50:46;11.50;;;5.20;;
36441;SDS011;22470;50.824;16.284;2022-07-29T13:53:13;11.68;;;5.47;;
36441;SDS011;22470;50.824;16.284;2022-07-29T13:55:43;11.25;;;4.47;;
36441;SDS011;22470;50.824;16.284;2022-07-29T13:58:10;10.50;;;5.50;;
36441;SDS011;22470;50.824;16.284;2022-07-29T14:00:38;12.23;;;5.75;;
36441;SDS011;22470;50.824;16.284;2022-07-29T14:03:05;9.48;;;4.72;;
36441;SDS011;22470;50.824;16.284;2022-07-29T14:05:32;9.40;;;4.38;;
36441;SDS011;22470;50.824;16.284;2022-07-29T14:07:59;10.15;;;4.78;;
36441;SDS011;22470;50.824;16.284;2022-07-29T14:10:26;9.10;;;4.65;;
36441;SDS011;22470;50.824;16.284;2022-07-29T14:12:53;8.50;;;4.13;;
36441;SDS011;22470;50.824;16.284;2022-07-29T14:15:21;8.73;;;4.50;;
36441;SDS011;22470;50.824;16.284;2022-07-29T14:17:48;13.57;;;4.72;;
36441;SDS011;22470;50.824;16.284;2022-07-29T14:20:15;10.18;;;4.35;;
36441;SDS011;22470;50.824;16.284;2022-07-29T14:22:42;13.70;;;4.38;;
36441;SDS011;22470;50.824;16.284;2022-07-29T14:25:11;11.45;;;4.85;;
36441;SDS011;22470;50.824;16.284;2022-07-29T14:27:41;11.48;;;4.10;;
36441;SDS011;22470;50.824;16.284;2022-07-29T14:30:09;9.30;;;5.20;;
36441;SDS011;22470;50.824;16.284;2022-07-29T14:32:37;10.30;;;4.38;;
36441;SDS011;22470;50.824;16.284;2022-07-29T14:35:05;16.85;;;5.07;;
36441;SDS011;22470;50.824;16.284;2022-07-29T14:37:32;11.23;;;5.03;;
36441;SDS011;22470;50.824;16.284;2022-07-29T14:40:06;10.35;;;4.88;;
36441;SDS011;22470;50.824;16.284;2022-07-29T14:42:34;9.48;;;4.93;;
36441;SDS011;22470;50.824;16.284;2022-07-29T14:45:02;14.10;;;4.57;;
36441;SDS011;22470;50.824;16.284;2022-07-29T14:47:30;13.32;;;4.53;;
36441;SDS011;22470;50.824;16.284;2022-07-29T14:49:57;14.43;;;4.78;;
36441;SDS011;22470;50.824;16.284;2022-07-29T14:52:24;11.82;;;4.45;;
36441;SDS011;22470;50.824;16.284;2022-07-29T14:54:51;12.38;;;4.65;;
36441;SDS011;22470;50.824;16.284;2022-07-29T14:57:19;9.18;;;4.20;;
36441;SDS011;22470;50.824;16.284;2022-07-29T14:59:46;10.20;;;4.40;;
36441;SDS011;22470;50.824;16.284;2022-07-29T15:02:13;13.15;;;5.78;;
36441;SDS011;22470;50.824;16.284;2022-07-29T15:04:40;12.35;;;5.00;;
36441;SDS011;22470;50.824;16.284;2022-07-29T15:07:07;20.10;;;6.10;;
36441;SDS011;22470;50.824;16.284;2022-07-29T15:09:35;11.63;;;4.70;;
36441;SDS011;22470;50.824;16.284;2022-07-29T15:12:15;7.43;;;4.55;;
36441;SDS011;22470;50.824;16.284;2022-07-29T15:14:42;12.95;;;6.03;;
36441;SDS011;22470;50.824;16.284;2022-07-29T15:17:10;9.77;;;4.55;;
36441;SDS011;22470;50.824;16.284;2022-07-29T15:19:37;9.98;;;4.80;;
36441;SDS011;22470;50.824;16.284;2022-07-29T15:22:10;9.95;;;4.15;;
36441;SDS011;22470;50.824;16.284;2022-07-29T15:24:37;11.15;;;4.18;;
36441;SDS011;22470;50.824;16.284;2022-07-29T15:27:04;9.57;;;4.78;;
36441;SDS011;22470;50.824;16.284;2022-07-29T15:29:32;15.07;;;4.60;;
36441;SDS011;22470;50.824;16.284;2022-07-29T15:31:59;7.95;;;4.38;;
36441;SDS011;22470;50.824;16.284;2022-07-29T15:34:26;9.25;;;4.30;;
36441;SDS011;22470;50.824;16.284;2022-07-29T15:36:54;9.85;;;4.57;;
36441;SDS011;22470;50.824;16.284;2022-07-29T15:39:21;11.43;;;5.00;;
36441;SDS011;22470;50.824;16.284;2022-07-29T15:41:48;9.63;;;4.57;;
36441;SDS011;22470;50.824;16.284;2022-07-29T15:44:16;11.45;;;5.10;;
36441;SDS011;22470;50.824;16.284;2022-07-29T15:46:44;9.98;;;4.80;;